createdAt,value
2023-03-29T00:00:28.370Z,99539.51
2023-03-29T00:01:35.491Z,99539.25
2023-03-29T00:02:29.025Z,99540.8
2023-03-29T00:03:29.543Z,99540.9
2023-03-29T00:04:29.981Z,99538.62
2023-03-29T00:05:30.251Z,99536.91
2023-03-29T00:06:30.576Z,99537.16
2023-03-29T00:07:31.497Z,99535.86
2023-03-29T00:08:32.832Z,99538.62
2023-03-29T00:09:32.705Z,99533.25
2023-03-29T00:10:33.364Z,99533.08
2023-03-29T00:11:33.158Z,99534.53
2023-03-29T00:12:33.160Z,99535.41
2023-03-29T00:13:34.107Z,99535.31
2023-03-29T00:14:33.813Z,99539.05
2023-03-29T00:15:34.312Z,99541.77
2023-03-29T00:16:34.786Z,99546.27
2023-03-29T00:17:35.167Z,99550
2023-03-29T00:18:35.562Z,99550.27
2023-03-29T00:19:36.114Z,99543.79
2023-03-29T00:20:36.620Z,99546.38
2023-03-29T00:21:36.708Z,99544.89
2023-03-29T00:22:39.077Z,99546.44
2023-03-29T00:23:38.677Z,99541.96
2023-03-29T00:24:38.072Z,99547.97
2023-03-29T00:25:38.236Z,99544.97
2023-03-29T00:26:38.886Z,99548.88
2023-03-29T00:27:39.606Z,99548.32
2023-03-29T00:28:40.042Z,99546.03
2023-03-29T00:29:39.933Z,99548.5
2023-03-29T00:30:40.552Z,99542.81
2023-03-29T00:31:41.545Z,99540.61
2023-03-29T00:32:42.038Z,99538.42
2023-03-29T00:33:42.627Z,99541.19
2023-03-29T00:34:42.751Z,99538.2
2023-03-29T00:35:43.367Z,99537.32
2023-03-29T00:36:43.575Z,99535.44
2023-03-29T00:37:43.964Z,99532.19
2023-03-29T00:38:44.307Z,99534.23
2023-03-29T00:39:45.663Z,99530.13
2023-03-29T00:40:46.764Z,99538.06
2023-03-29T00:41:46.570Z,99531.06
2023-03-29T00:42:46.070Z,99534.32
2023-03-29T00:45:49.464Z,99532.33
2023-03-29T00:46:49.661Z,99539.22
2023-03-29T00:48:55.222Z,99534.66
2023-03-29T00:49:54.516Z,99537.09
2023-03-29T00:51:55.154Z,99536.06
2023-03-29T00:55:01.611Z,99541.28
2023-03-29T00:56:59.599Z,99543.31
2023-03-29T01:00:05.602Z,99548.66
2023-03-29T01:01:08.925Z,99544.8
2023-03-29T01:02:09.408Z,99542.8
2023-03-29T01:03:13.068Z,99541.55
2023-03-29T01:05:18.680Z,99546.09
2023-03-29T01:06:13.976Z,99542.59
2023-03-29T01:15:37.286Z,99547
2023-03-29T01:16:36.921Z,99549.06
2023-03-29T01:17:37.468Z,99543.14
2023-03-29T01:18:37.196Z,99547.37
2023-03-29T01:21:46.122Z,99546.7
2023-03-29T01:29:12.796Z,99542.69
2023-03-29T01:30:16.210Z,99543.07
2023-03-29T01:31:21.746Z,99549.84
2023-03-29T01:36:38.442Z,99550.7
2023-03-29T01:38:34.668Z,99552.27
2023-03-29T01:39:32.625Z,99548.7
2023-03-29T01:40:33.669Z,99551.98
2023-03-29T01:52:05.391Z,99563.34
2023-03-29T01:55:15.534Z,99560.74
2023-03-29T01:57:19.604Z,99558.17
2023-03-29T01:58:21.411Z,99552.06
2023-03-29T01:59:22.796Z,99553.3
2023-03-29T02:02:27.794Z,99555.61
2023-03-29T02:03:27.778Z,99556.16
2023-03-29T02:05:29.946Z,99560.38
2023-03-29T02:06:30.045Z,99557.12
2023-03-29T02:07:30.978Z,99554.48
2023-03-29T02:08:29.746Z,99557.78
2023-03-29T02:09:31.598Z,99553.52
2023-03-29T02:10:30.307Z,99541.85
2023-03-29T02:11:30.282Z,99546.03
2023-03-29T02:12:31.826Z,99543.28
2023-03-29T02:13:31.836Z,99546.28
2023-03-29T02:14:31.343Z,99547.61
2023-03-29T02:15:31.878Z,99550.55
2023-03-29T02:17:34.431Z,99557.3
2023-03-29T02:18:35.859Z,99558.88
2023-03-29T02:19:35.674Z,99553.8
2023-03-29T02:20:39.295Z,99556.05
2023-03-29T02:23:46.649Z,99543.2
2023-03-29T02:24:46.414Z,99540.2
2023-03-29T02:25:45.844Z,99542.09
2023-03-29T02:26:44.919Z,99547.75
2023-03-29T02:27:46.058Z,99547.29
2023-03-29T02:28:46.058Z,99539.27
2023-03-29T02:29:46.187Z,99549.61
2023-03-29T02:31:56.744Z,99547.47
2023-03-29T02:36:03.716Z,99553.75
2023-03-29T02:37:06.983Z,99552.48
2023-03-29T02:38:09.269Z,99548.41
2023-03-29T02:39:09.500Z,99548.73
2023-03-29T02:40:08.304Z,99553.07
2023-03-29T02:41:08.321Z,99555.05
2023-03-29T02:42:09.196Z,99556.03
2023-03-29T02:43:10.314Z,99559.12
2023-03-29T02:44:12.895Z,99554.55
2023-03-29T02:45:16.480Z,99562.16
2023-03-29T02:46:16.327Z,99552.34
2023-03-29T02:47:19.563Z,99548.45
2023-03-29T02:48:21.017Z,99547.23
2023-03-29T02:49:18.967Z,99547.61
2023-03-29T02:50:20.740Z,99549.62
2023-03-29T02:51:23.698Z,99551.52
2023-03-29T02:52:28.216Z,99544.98
2023-03-29T02:54:31.292Z,99545.54
2023-03-29T02:55:33.046Z,99554.06
2023-03-29T02:56:41.894Z,99556.41
2023-03-29T02:57:34.491Z,99562.58
2023-03-29T02:58:34.797Z,99562.3
2023-03-29T02:59:35.317Z,99563.62
2023-03-29T03:00:40.462Z,99562.27
2023-03-29T03:01:39.447Z,99560.13
2023-03-29T03:02:38.272Z,99558.31
2023-03-29T03:03:38.874Z,99561.17
2023-03-29T03:04:39.048Z,99562.33
2023-03-29T03:05:39.461Z,99564.25
2023-03-29T03:06:39.989Z,99565.2
2023-03-29T03:07:40.297Z,99566.23
2023-03-29T03:08:40.813Z,99567.62
2023-03-29T03:09:41.223Z,99566.63
2023-03-29T03:10:41.859Z,99568.5
2023-03-29T03:11:42.275Z,99561.91
2023-03-29T03:12:42.264Z,99567.21
2023-03-29T03:13:42.895Z,99567.7
2023-03-29T03:14:43.141Z,99568.44
2023-03-29T03:15:43.528Z,99572.28
2023-03-29T03:16:44.057Z,99572.69
2023-03-29T03:17:45.087Z,99577.62
2023-03-29T03:18:45.372Z,99577.02
2023-03-29T03:19:46.002Z,99584.04
2023-03-29T03:20:58.776Z,99579.8
2023-03-29T03:21:46.424Z,99582.36
2023-03-29T03:22:47.049Z,99580.62
2023-03-29T03:23:47.682Z,99580.23
2023-03-29T03:24:47.463Z,99580
2023-03-29T03:25:48.289Z,99584.64
2023-03-29T03:26:48.298Z,99581.28
2023-03-29T03:27:49.647Z,99581.11
2023-03-29T03:28:49.233Z,99584.79
2023-03-29T03:29:49.560Z,99586.93
2023-03-29T03:30:50.273Z,99594.11
2023-03-29T03:31:52.486Z,99591.17
2023-03-29T03:32:51.114Z,99593.35
2023-03-29T03:33:51.722Z,99605.94
2023-03-29T03:34:52.033Z,99600.37
2023-03-29T03:35:52.813Z,99602.1
2023-03-29T03:36:52.772Z,99597.51
2023-03-29T03:37:53.189Z,99604.03
2023-03-29T03:38:53.492Z,99596.66
2023-03-29T03:39:54.520Z,99597.85
2023-03-29T03:40:55.566Z,99600.05
2023-03-29T03:41:55.466Z,99603.55
2023-03-29T03:42:55.870Z,99601.06
2023-03-29T03:43:56.397Z,99603.2
2023-03-29T03:44:56.732Z,99608.8
2023-03-29T03:45:57.367Z,99603.41
2023-03-29T03:46:57.649Z,99608.12
2023-03-29T03:47:57.983Z,99608.75
2023-03-29T03:48:59.601Z,99605.44
2023-03-29T03:49:58.703Z,99601.3
2023-03-29T03:50:59.269Z,99599.75
2023-03-29T03:51:59.620Z,99599.77
2023-03-29T03:53:00.044Z,99595.66
2023-03-29T03:54:00.425Z,99598.28
2023-03-29T03:55:00.687Z,99600.23
2023-03-29T03:56:01.083Z,99587.83
2023-03-29T03:57:01.793Z,99590.19
2023-03-29T03:58:02.193Z,99594.02
2023-03-29T03:59:02.348Z,99595.56
2023-03-29T04:00:04.004Z,99593.39
2023-03-29T04:01:03.861Z,99593.92
2023-03-29T04:02:03.801Z,99591.88
2023-03-29T04:03:04.644Z,99593.83
2023-03-29T04:04:04.441Z,99597.91
2023-03-29T04:05:05.554Z,99601.98
2023-03-29T04:06:06.053Z,99604.88
2023-03-29T04:07:05.658Z,99605.41
2023-03-29T04:08:06.091Z,99607.4
2023-03-29T04:09:06.610Z,99605.42
2023-03-29T04:10:08.338Z,99615.2
2023-03-29T04:11:07.291Z,99608.7
2023-03-29T04:12:07.952Z,99605.39
2023-03-29T04:13:08.170Z,99611.38
2023-03-29T04:14:08.482Z,99616.14
2023-03-29T04:15:09.814Z,99622.02
2023-03-29T04:16:09.879Z,99620.86
2023-03-29T04:17:10.860Z,99619.76
2023-03-29T04:18:10.269Z,99621.37
2023-03-29T04:19:10.452Z,99617.3
2023-03-29T04:20:11.089Z,99619.07
2023-03-29T04:21:11.286Z,99611.3
2023-03-29T04:22:11.705Z,99614.77
2023-03-29T04:23:12.135Z,99611.34
2023-03-29T04:24:12.855Z,99614.67
2023-03-29T04:25:13.053Z,99616.08
2023-03-29T04:26:13.588Z,99612.11
2023-03-29T04:27:13.883Z,99608.44
2023-03-29T04:28:14.225Z,99606.08
2023-03-29T04:29:14.733Z,99615.21
2023-03-29T04:30:15.573Z,99612.27
2023-03-29T04:31:18.109Z,99621.38
2023-03-29T04:32:16.197Z,99620.3
2023-03-29T04:33:16.181Z,99616.66
2023-03-29T04:34:16.606Z,99618.4
2023-03-29T04:35:17.126Z,99621.83
2023-03-29T04:36:17.511Z,99622.88
2023-03-29T04:37:18.054Z,99622.7
2023-03-29T04:38:18.684Z,99623.3
2023-03-29T04:39:18.817Z,99625.95
2023-03-29T04:40:19.208Z,99623.98
2023-03-29T04:41:20.250Z,99628.91
2023-03-29T04:42:20.253Z,99626.97
2023-03-29T04:43:20.256Z,99623.89
2023-03-29T04:44:20.671Z,99627.12
2023-03-29T04:45:21.342Z,99627.73
2023-03-29T04:46:21.674Z,99628.99
2023-03-29T04:47:22.020Z,99627.98
2023-03-29T04:48:22.456Z,99625.58
2023-03-29T04:49:26.234Z,99632.38
2023-03-29T04:50:23.682Z,99629.04
2023-03-29T04:51:24.192Z,99637.55
2023-03-29T04:52:24.723Z,99634.03
2023-03-29T04:53:24.848Z,99633.98
2023-03-29T04:54:27.778Z,99633.06
2023-03-29T04:55:25.964Z,99637.09
2023-03-29T04:56:26.069Z,99642.25
2023-03-29T04:57:26.666Z,99658.44
2023-03-29T04:58:30.719Z,99651.24
2023-03-29T04:59:30.013Z,99641.84
2023-03-29T05:00:30.195Z,99640.62
2023-03-29T05:01:30.556Z,99652.44
2023-03-29T05:02:31.261Z,99651.8
2023-03-29T05:03:31.343Z,99648.42
2023-03-29T05:04:32.002Z,99647.68
2023-03-29T05:05:32.180Z,99652.17
2023-03-29T05:06:32.668Z,99647.53
2023-03-29T05:07:33.043Z,99653.83
2023-03-29T05:08:34.819Z,99651.5
2023-03-29T05:09:35.493Z,99652.53
2023-03-29T05:10:34.109Z,99648.38
2023-03-29T05:11:35.084Z,99658.14
2023-03-29T05:12:35.226Z,99659.8
2023-03-29T05:13:35.388Z,99662.23
2023-03-29T05:14:35.926Z,99661.72
2023-03-29T05:15:37.158Z,99659
2023-03-29T05:16:36.792Z,99662.75
2023-03-29T05:17:40.959Z,99655.27
2023-03-29T05:18:38.410Z,99661.05
2023-03-29T05:19:38.725Z,99661.06
2023-03-29T05:20:39.082Z,99659.12
2023-03-29T05:21:39.659Z,99660.09
2023-03-29T05:22:40.173Z,99659.22
2023-03-29T05:23:40.393Z,99656.86
2023-03-29T05:24:40.926Z,99662.67
2023-03-29T05:25:41.326Z,99659.24
2023-03-29T05:26:41.630Z,99656.31
2023-03-29T05:27:42.151Z,99669.62
2023-03-29T05:28:42.994Z,99682.3
2023-03-29T05:29:44.113Z,99672.61
2023-03-29T05:30:43.961Z,99671.83
2023-03-29T05:31:43.913Z,99664.27
2023-03-29T05:32:46.193Z,99670.67
2023-03-29T05:33:44.584Z,99677.75
2023-03-29T05:34:44.867Z,99663.09
2023-03-29T05:35:45.927Z,99664.7
2023-03-29T05:36:46.624Z,99665.53
2023-03-29T05:37:46.217Z,99665.05
2023-03-29T05:38:46.939Z,99661.89
2023-03-29T05:39:47.250Z,99670.68
2023-03-29T05:40:47.372Z,99666.37
2023-03-29T05:41:48.897Z,99655.77
2023-03-29T05:42:49.389Z,99658.25
2023-03-29T05:43:48.608Z,99655.97
2023-03-29T05:44:49.038Z,99665.69
2023-03-29T05:45:49.573Z,99660.12
2023-03-29T05:46:52.545Z,99662.83
2023-03-29T05:47:52.859Z,99671.03
2023-03-29T05:48:50.687Z,99663.2
2023-03-29T05:49:51.073Z,99656.39
2023-03-29T05:50:53.260Z,99655.6
2023-03-29T05:51:52.187Z,99657.23
2023-03-29T05:52:52.249Z,99661.55
2023-03-29T05:53:52.765Z,99656.34
2023-03-29T05:54:52.971Z,99659.95
2023-03-29T05:55:53.807Z,99658.27
2023-03-29T05:56:53.849Z,99661
2023-03-29T05:57:54.348Z,99662.38
2023-03-29T05:58:55.268Z,99664.44
2023-03-29T05:59:55.065Z,99661
2023-03-29T06:00:58.446Z,99661.29
2023-03-29T06:01:56.032Z,99661.34
2023-03-29T06:03:03.750Z,99670.77
2023-03-29T06:04:01.167Z,99666.78
2023-03-29T06:05:01.477Z,99664.78
2023-03-29T06:06:03.935Z,99670.03
2023-03-29T06:07:02.313Z,99666.8
2023-03-29T06:08:03.112Z,99673.18
2023-03-29T06:09:06.086Z,99664.84
2023-03-29T06:10:04.141Z,99668.22
2023-03-29T06:11:06.788Z,99666.59
2023-03-29T06:12:04.650Z,99668
2023-03-29T06:13:05.189Z,99667.64
2023-03-29T06:14:05.401Z,99673.08
2023-03-29T06:15:06.652Z,99677.45
2023-03-29T06:16:06.853Z,99673.51
2023-03-29T06:17:06.718Z,99687.85
2023-03-29T06:18:07.248Z,99682.16
2023-03-29T06:19:07.889Z,99680.42
2023-03-29T06:20:09.636Z,99674.77
2023-03-29T06:21:08.523Z,99679.52
2023-03-29T06:22:08.860Z,99677.15
2023-03-29T06:23:09.659Z,99678.53
2023-03-29T06:24:10.384Z,99682.05
2023-03-29T06:25:12.978Z,99677.95
2023-03-29T06:26:12.878Z,99683.31
2023-03-29T06:27:11.128Z,99677.72
2023-03-29T06:28:11.834Z,99683.77
2023-03-29T06:29:11.750Z,99686.97
2023-03-29T06:30:13.290Z,99689.38
2023-03-29T06:31:13.049Z,99682.92
2023-03-29T06:32:13.003Z,99682.02
2023-03-29T06:33:13.905Z,99683.75
2023-03-29T06:34:13.695Z,99694.21
2023-03-29T06:35:14.396Z,99682.35
2023-03-29T06:36:14.517Z,99685.5
2023-03-29T06:37:15.492Z,99689.66
2023-03-29T06:38:15.805Z,99688.21
2023-03-29T06:39:15.695Z,99687.8
2023-03-29T06:40:18.292Z,99693.6
2023-03-29T06:41:16.561Z,99693.83
2023-03-29T06:42:21.688Z,99695.08
2023-03-29T06:43:19.522Z,99698.99
2023-03-29T06:44:19.845Z,99697.36
2023-03-29T06:45:23.257Z,99691.59
2023-03-29T06:46:21.701Z,99697.31
2023-03-29T06:47:22.068Z,99704.83
2023-03-29T06:48:22.437Z,99704.56
2023-03-29T06:49:22.838Z,99703.69
2023-03-29T06:50:23.358Z,99703.22
2023-03-29T06:51:23.775Z,99710.92
2023-03-29T06:52:24.093Z,99699.26
2023-03-29T06:53:24.611Z,99715.52
2023-03-29T06:54:24.926Z,99714.47
2023-03-29T06:55:25.772Z,99704.09
2023-03-29T06:56:26.797Z,99709.67
2023-03-29T06:57:26.026Z,99705.64
2023-03-29T06:58:26.593Z,99709.14
2023-03-29T06:59:27.011Z,99706.65
2023-03-29T07:00:27.135Z,99704.27
2023-03-29T07:01:27.483Z,99701.31
2023-03-29T07:02:28.078Z,99702.45
2023-03-29T07:03:28.779Z,99704.82
2023-03-29T07:04:28.830Z,99706.08
2023-03-29T07:05:29.295Z,99699.52
2023-03-29T07:06:30.236Z,99715.88
2023-03-29T07:07:29.927Z,99707.31
2023-03-29T07:08:30.547Z,99706.17
2023-03-29T07:09:32.333Z,99712.86
2023-03-29T07:10:35.988Z,99708.48
2023-03-29T07:11:34.148Z,99710.6
2023-03-29T07:12:34.195Z,99714.23
2023-03-29T07:13:34.474Z,99707.23
2023-03-29T07:14:38.066Z,99717.24
2023-03-29T07:15:36.061Z,99711.95
2023-03-29T07:16:36.285Z,99716.79
2023-03-29T07:17:36.389Z,99725.47
2023-03-29T07:18:36.969Z,99715.11
2023-03-29T07:19:37.383Z,99718.23
2023-03-29T07:20:37.591Z,99716.08
2023-03-29T07:21:38.333Z,99710.36
2023-03-29T07:22:38.353Z,99714.89
2023-03-29T07:23:39.764Z,99713.62
2023-03-29T07:24:39.050Z,99715.51
2023-03-29T07:25:39.489Z,99721.7
2023-03-29T07:26:46.342Z,99720.86
2023-03-29T07:27:41.527Z,99715.6
2023-03-29T07:28:40.834Z,99728.53
2023-03-29T07:29:40.933Z,99716.2
2023-03-29T07:30:41.408Z,99716.08
2023-03-29T07:31:42.370Z,99718.47
2023-03-29T07:32:43.306Z,99712.88
2023-03-29T07:33:42.930Z,99707.41
2023-03-29T07:34:43.527Z,99716.04
2023-03-29T07:35:43.877Z,99715.97
2023-03-29T07:36:43.734Z,99719.31
2023-03-29T07:37:45.609Z,99721.81
2023-03-29T07:38:44.690Z,99710.56
2023-03-29T07:39:45.875Z,99723.11
2023-03-29T07:40:45.509Z,99727.2
2023-03-29T07:41:45.897Z,99717.38
2023-03-29T07:42:47.060Z,99714.71
2023-03-29T07:43:46.709Z,99739.35
2023-03-29T07:44:47.389Z,99727.86
2023-03-29T07:45:47.498Z,99728.55
2023-03-29T07:46:47.896Z,99720.64
2023-03-29T07:47:48.664Z,99726.96
2023-03-29T07:48:49.137Z,99727.17
2023-03-29T07:49:51.397Z,99740.28
2023-03-29T07:50:50.498Z,99746.55
2023-03-29T07:51:49.605Z,99741.74
2023-03-29T07:52:49.981Z,99728.97
2023-03-29T07:53:53.443Z,99736.22
2023-03-29T07:54:50.826Z,99741.09
2023-03-29T07:55:51.091Z,99737.39
2023-03-29T07:56:51.476Z,99730.64
2023-03-29T07:57:51.832Z,99735.91
2023-03-29T07:58:52.370Z,99741.12
2023-03-29T07:59:54.031Z,99734.34
2023-03-29T08:00:54.305Z,99726.73
2023-03-29T08:01:53.946Z,99735.44
2023-03-29T08:02:53.665Z,99733.48
2023-03-29T08:03:54.230Z,99728.44
2023-03-29T08:04:55.174Z,99735.84
2023-03-29T08:05:54.576Z,99735.91
2023-03-29T08:06:54.886Z,99727.9
2023-03-29T08:07:55.424Z,99732.03
2023-03-29T08:08:55.630Z,99731.42
2023-03-29T08:09:55.956Z,99738.73
2023-03-29T08:10:56.258Z,99736.5
2023-03-29T08:11:56.410Z,99736.88
2023-03-29T08:12:56.905Z,99740.67
2023-03-29T08:13:57.101Z,99744.36
2023-03-29T08:14:57.502Z,99748.31
2023-03-29T08:15:57.930Z,99741.81
2023-03-29T08:16:58.173Z,99742.34
2023-03-29T08:17:58.582Z,99741.26
2023-03-29T08:18:58.769Z,99745.28
2023-03-29T08:19:59.196Z,99744.5
2023-03-29T08:20:59.587Z,99749.52
2023-03-29T08:22:01.130Z,99747.64
2023-03-29T08:23:00.135Z,99747.03
2023-03-29T08:24:00.353Z,99752.02
2023-03-29T08:25:00.962Z,99731.84
2023-03-29T08:26:01.263Z,99748.62
2023-03-29T08:27:01.582Z,99763.03
2023-03-29T08:28:01.808Z,99749.84
2023-03-29T08:29:02.046Z,99749.55
2023-03-29T08:30:02.543Z,99757.17
2023-03-29T08:31:03.170Z,99768.75
2023-03-29T08:32:03.072Z,99763.27
2023-03-29T08:33:03.363Z,99768.54
2023-03-29T08:34:03.889Z,99760.27
2023-03-29T08:35:05.799Z,99765.91
2023-03-29T08:36:06.723Z,99768.73
2023-03-29T08:37:04.733Z,99767.88
2023-03-29T08:38:04.974Z,99765.06
2023-03-29T08:39:05.353Z,99771.65
2023-03-29T08:40:06.942Z,99777.75
2023-03-29T08:49:30.409Z,99766.44
2023-03-29T08:51:40.779Z,99774.15
2023-03-29T08:53:44.364Z,99770.89
2023-03-29T08:54:43.457Z,99766.19
2023-03-29T08:56:46.878Z,99776.89
2023-03-29T08:57:48.787Z,99776.02
2023-03-29T09:01:57.778Z,99777.59
2023-03-29T09:02:56.988Z,99782.7
2023-03-29T09:07:11.601Z,99775.06
2023-03-29T09:27:02.708Z,99787.06
2023-03-29T09:31:21.315Z,99809.59
2023-03-29T09:32:21.378Z,99796.98
2023-03-29T09:37:39.230Z,99785.3
2023-03-29T09:38:43.465Z,99784.84
2023-03-29T09:39:41.291Z,99803.96
2023-03-29T09:41:56.004Z,99789.88
2023-03-29T09:42:54.631Z,99794.83
2023-03-29T09:43:54.734Z,99792.41
2023-03-29T09:44:56.473Z,99774.6
2023-03-29T09:45:59.172Z,99789.91
2023-03-29T09:49:02.053Z,99795.6
2023-03-29T09:51:09.046Z,99785.51
2023-03-29T09:53:09.974Z,99792.59
2023-03-29T09:54:12.136Z,99789.7
2023-03-29T09:56:13.955Z,99786.28
2023-03-29T09:57:17.196Z,99794.44
2023-03-29T09:58:22.597Z,99788.8
2023-03-29T09:59:15.108Z,99783.88
2023-03-29T10:00:19.120Z,99782.95
2023-03-29T10:01:17.203Z,99803.09
2023-03-29T10:02:19.837Z,99809.56
2023-03-29T10:03:26.589Z,99792.48
2023-03-29T10:04:19.238Z,99793.02
2023-03-29T10:05:20.371Z,99786.23
2023-03-29T10:06:23.869Z,99807.98
2023-03-29T10:07:21.495Z,99803.7
2023-03-29T10:08:29.717Z,99797.62
2023-03-29T10:09:24.095Z,99799.27
2023-03-29T10:12:29.017Z,99796.84
2023-03-29T10:15:34.992Z,99800.69
2023-03-29T10:16:39.041Z,99794
2023-03-29T10:17:41.098Z,99796.42
2023-03-29T10:18:42.270Z,99805.55
2023-03-29T10:20:42.689Z,99789.75
2023-03-29T10:21:43.007Z,99802.94
2023-03-29T10:22:48.745Z,99794.36
2023-03-29T10:23:45.997Z,99793.95
2023-03-29T10:24:54.847Z,99782.8
2023-03-29T10:25:47.438Z,99790.25
2023-03-29T10:26:48.783Z,99806.91
2023-03-29T10:27:48.063Z,99804.98
2023-03-29T10:28:48.483Z,99808.62
2023-03-29T10:29:48.898Z,99799.73
2023-03-29T10:30:55.175Z,99794.27
2023-03-29T10:31:53.313Z,99798.59
2023-03-29T10:32:58.290Z,99791.73
2023-03-29T10:33:58.202Z,99820.02
2023-03-29T10:36:06.739Z,99806.27
2023-03-29T10:37:04.097Z,99801.92
2023-03-29T10:38:10.046Z,99815.31
2023-03-29T10:39:08.107Z,99796.78
2023-03-29T10:41:14.060Z,99825.33
2023-03-29T10:45:29.664Z,99801.94
2023-03-29T10:47:32.265Z,99809.56
2023-03-29T10:48:31.832Z,99814.84
2023-03-29T10:49:41.270Z,99816.33
2023-03-29T10:50:35.640Z,99814.88
2023-03-29T10:51:33.993Z,99801.1
2023-03-29T10:52:35.121Z,99804.93
2023-03-29T10:53:37.174Z,99801.23
2023-03-29T10:54:35.870Z,99817.01
2023-03-29T10:55:42.931Z,99800.86
2023-03-29T10:56:43.775Z,99805.28
2023-03-29T11:29:07.234Z,99817.58
2023-03-29T11:30:07.336Z,99811.53
2023-03-29T11:32:16.959Z,99805.32
2023-03-29T11:37:35.144Z,99815.59
2023-03-29T11:44:47.029Z,99812.39
2023-03-29T11:47:51.663Z,99822.22
2023-03-29T12:00:28.821Z,99824.56
2023-03-29T12:04:38.986Z,99813.72
2023-03-29T12:05:36.128Z,99824.81
2023-03-29T12:10:49.893Z,99830.19
2023-03-29T12:15:07.195Z,99824.72
2023-03-29T12:22:12.458Z,99832.31
2023-03-29T12:23:15.110Z,99843.98
2023-03-29T12:24:15.270Z,99838.74
2023-03-29T12:25:21.305Z,99840.05
2023-03-29T12:38:57.356Z,99839.53
2023-03-29T12:41:01.391Z,99843.27
2023-03-29T12:43:07.016Z,99849.91
2023-03-29T12:44:05.257Z,99846.75
2023-03-29T12:45:05.474Z,99836.34
2023-03-29T12:46:09.321Z,99834.38
2023-03-29T12:47:06.925Z,99840.16
2023-03-29T12:48:15.228Z,99841.52
2023-03-29T13:01:37.898Z,99850.39
2023-03-29T13:02:36.522Z,99840.39
2023-03-29T13:05:41.179Z,99845.55
2023-03-29T13:07:46.799Z,99869.36
2023-03-29T13:09:54.998Z,99857.55
2023-03-29T13:10:56.649Z,99854.55
2023-03-29T13:11:57.986Z,99860.97
2023-03-29T13:12:55.338Z,99855.1
2023-03-29T13:13:56.370Z,99870.47
2023-03-29T13:39:03.696Z,99863.64
2023-03-29T13:40:01.034Z,99871.75
2023-03-29T13:49:29.466Z,99876.84
2023-03-29T13:52:33.381Z,99881.97
2023-03-29T13:53:40.012Z,99885.82
2023-03-29T13:54:44.288Z,99879.25
2023-03-29T13:55:48.751Z,99888.67
2023-03-29T13:58:54.238Z,99879.27
2023-03-29T14:01:02.617Z,99877.48
2023-03-29T14:02:00.828Z,99886.91
2023-03-29T14:03:00.127Z,99882.95
2023-03-29T14:03:59.374Z,99878.75
2023-03-29T14:05:01.297Z,99882.36
2023-03-29T14:06:02.086Z,99884.67
2023-03-29T14:07:01.539Z,99880.01
2023-03-29T14:09:07.913Z,99896.45
2023-03-29T14:10:07.166Z,99892.47
2023-03-29T14:12:12.713Z,99888.43
2023-03-29T14:13:14.983Z,99881.44
2023-03-29T14:14:13.135Z,99897.62
2023-03-29T14:15:26.675Z,99886.57
2023-03-29T14:16:14.423Z,99885.52
2023-03-29T14:17:21.551Z,99879.83
2023-03-29T14:18:23.734Z,99880.09
2023-03-29T14:20:27.962Z,99872.95
2023-03-29T14:21:26.186Z,99872.48
2023-03-29T14:22:31.632Z,99869.62
2023-03-29T14:23:31.743Z,99873.45
2023-03-29T14:24:39.212Z,99875.42
2023-03-29T14:25:31.534Z,99874.42
2023-03-29T14:26:34.242Z,99882.44
2023-03-29T14:27:35.770Z,99889.97
2023-03-29T14:28:33.726Z,99889.72
2023-03-29T14:29:36.285Z,99878.48
2023-03-29T14:30:33.824Z,99879.5
2023-03-29T14:31:37.011Z,99874.7
2023-03-29T14:32:36.825Z,99883.27
2023-03-29T14:33:36.195Z,99876.52
2023-03-29T14:34:35.295Z,99877.73
2023-03-29T14:35:38.451Z,99886.7
2023-03-29T14:36:36.266Z,99882.28
2023-03-29T14:37:36.451Z,99884.23
2023-03-29T14:38:36.959Z,99879.89
2023-03-29T14:39:37.755Z,99884.51
2023-03-29T14:40:37.390Z,99882.19
2023-03-29T14:41:38.770Z,99886.14
2023-03-29T14:42:38.408Z,99883.02
2023-03-29T14:43:38.832Z,99879.42
2023-03-29T14:44:39.044Z,99881.02
2023-03-29T14:45:39.275Z,99887.05
2023-03-29T14:46:44.474Z,99891.88
2023-03-29T14:47:44.105Z,99884.02
2023-03-29T14:48:43.165Z,99886.91
2023-03-29T14:49:43.593Z,99889.06
2023-03-29T14:50:44.931Z,99891.34
2023-03-29T14:51:47.312Z,99892.11
2023-03-29T14:52:47.541Z,99893.22
2023-03-29T14:53:46.782Z,99890.78
2023-03-29T14:54:51.409Z,99896.62
2023-03-29T14:55:53.360Z,99894.44
2023-03-29T14:56:51.575Z,99892.27
2023-03-29T14:57:54.188Z,99895.23
2023-03-29T14:58:54.641Z,99897.56
2023-03-29T15:00:01.463Z,99896.38
2023-03-29T15:00:54.101Z,99895.66
2023-03-29T15:01:54.349Z,99897.94
2023-03-29T15:03:02.571Z,99899.34
2023-03-29T15:04:04.957Z,99897.96
2023-03-29T15:05:06.014Z,99905.89
2023-03-29T15:06:04.322Z,99901.77
2023-03-29T15:07:05.607Z,99898.78
2023-03-29T15:08:04.798Z,99895.56
2023-03-29T15:09:06.206Z,99896.21
2023-03-29T15:10:08.122Z,99895.58
2023-03-29T15:11:18.569Z,99896.69
2023-03-29T15:12:06.772Z,99900.89
2023-03-29T15:13:08.019Z,99897.36
2023-03-29T15:14:15.904Z,99903.08
2023-03-29T15:15:12.532Z,99914.11
2023-03-29T15:16:14.617Z,99900.3
2023-03-29T15:18:17.072Z,99901.7
2023-03-29T15:19:25.446Z,99908.34
2023-03-29T15:20:31.502Z,99905.84
2023-03-29T15:21:22.096Z,99909.88
2023-03-29T15:22:19.538Z,99914.09
2023-03-29T15:23:24.396Z,99907.46
2023-03-29T15:24:34.200Z,99906.4
2023-03-29T15:28:33.716Z,99910.82
2023-03-29T15:29:40.393Z,99904.2
2023-03-29T15:31:44.748Z,99908.07
2023-03-29T15:32:37.102Z,99904.73
2023-03-29T15:33:41.697Z,99906.2
2023-03-29T15:34:39.389Z,99905.13
2023-03-29T15:35:39.509Z,99905.2
2023-03-29T15:36:43.159Z,99906.08
2023-03-29T15:37:40.624Z,99906.65
2023-03-29T15:38:48.521Z,99907.34
2023-03-29T15:39:45.789Z,99903.73
2023-03-29T15:40:47.400Z,99909.13
2023-03-29T15:41:51.078Z,99907.93
2023-03-29T15:42:48.846Z,99907.82
2023-03-29T15:43:48.778Z,99903.56
2023-03-29T15:44:53.372Z,99909.74
2023-03-29T15:45:50.822Z,99907.56
2023-03-29T15:46:51.048Z,99910.05
2023-03-29T15:47:51.293Z,99901.7
2023-03-29T15:48:51.757Z,99906.7
2023-03-29T15:49:52.018Z,99896.39
2023-03-29T15:50:53.426Z,99900.89
2023-03-29T15:51:53.512Z,99902.95
2023-03-29T15:52:54.809Z,99901.86
2023-03-29T15:53:53.636Z,99903.88
2023-03-29T15:54:54.273Z,99900.36
2023-03-29T15:55:58.675Z,99907.38
2023-03-29T15:57:01.505Z,99899.88
2023-03-29T15:57:59.196Z,99904.63
2023-03-29T15:58:59.319Z,99900.81
2023-03-29T15:59:59.511Z,99898
2023-03-29T16:02:05.163Z,99901.03
2023-03-29T16:03:09.585Z,99905.44
2023-03-29T16:04:11.831Z,99902.41
2023-03-29T16:05:11.537Z,99907.27
2023-03-29T16:06:11.647Z,99904
2023-03-29T16:07:15.358Z,99904.4
2023-03-29T16:08:14.134Z,99903.55
2023-03-29T16:09:13.518Z,99909.17
2023-03-29T16:10:13.515Z,99907.98
2023-03-29T16:11:13.934Z,99904.66
2023-03-29T16:12:14.246Z,99905.62
2023-03-29T16:13:15.481Z,99909.39
2023-03-29T16:14:25.931Z,99909.59
2023-03-29T16:15:22.253Z,99912.19
2023-03-29T16:16:19.621Z,99911.02
2023-03-29T16:17:19.900Z,99913.79
2023-03-29T16:18:20.849Z,99911.1
2023-03-29T16:19:21.053Z,99917.49
2023-03-29T16:20:21.150Z,99911.76
2023-03-29T16:21:22.457Z,99911.82
2023-03-29T16:22:21.803Z,99918.53
2023-03-29T16:23:22.288Z,99914.11
2023-03-29T16:24:25.400Z,99923
2023-03-29T16:25:23.442Z,99920.44
2023-03-29T16:26:24.364Z,99917.46
2023-03-29T16:27:25.786Z,99917.2